createdAt,value
2018-07-22T00:00:05.735Z,99366.73
2018-07-22T00:02:43.843Z,99370.73
2018-07-22T00:05:22.890Z,99368.75
2018-07-22T00:08:01.330Z,99366.91
2018-07-22T00:10:39.684Z,99375.11
2018-07-22T00:13:18.169Z,99377.86
2018-07-22T00:15:56.832Z,99382.50
2018-07-22T00:18:35.537Z,99383.50
2018-07-22T00:21:14.001Z,99392.91
2018-07-22T00:23:52.423Z,99386.55
2018-07-22T00:26:29.305Z,99391.10
2018-07-22T00:29:10.435Z,99392.88
2018-07-22T00:31:48.140Z,99393.63
2018-07-22T00:34:26.270Z,99398.74
2018-07-22T00:37:04.654Z,99406.18
2018-07-22T00:39:42.738Z,99402.89
2018-07-22T00:42:21.142Z,99409.72
2018-07-22T00:44:59.227Z,99410.53
2018-07-22T00:47:37.662Z,99409.57
2018-07-22T00:50:15.773Z,99409.33
2018-07-22T00:52:54.418Z,99422.63
2018-07-22T00:55:32.760Z,99426.50
2018-07-22T00:58:10.640Z,99436.52
2018-07-22T01:00:48.372Z,99444.69
2018-07-22T01:03:27.442Z,99444.63
2018-07-22T01:06:05.644Z,99447.70
2018-07-22T01:08:44.571Z,99456.56
2018-07-22T01:11:23.044Z,99465.77
2018-07-22T01:14:01.444Z,99470.91
2018-07-22T01:16:40.414Z,99479.12
2018-07-22T01:19:18.767Z,99481.50
2018-07-22T01:21:56.649Z,99483.83
2018-07-22T01:24:35.612Z,99478.91
2018-07-22T01:27:14.569Z,99481.08
2018-07-22T01:29:52.337Z,99483.22
2018-07-22T01:32:31.306Z,99489.52
2018-07-22T01:35:10.269Z,99482.28
2018-07-22T01:37:48.175Z,99473.14
2018-07-22T01:40:26.500Z,99479.20
2018-07-22T01:43:05.027Z,99500.14
2018-07-22T01:45:43.059Z,99507.58
2018-07-22T01:48:24.671Z,99503.05
2018-07-22T01:51:02.500Z,99511.49
2018-07-22T01:53:40.261Z,99521.87
2018-07-22T01:56:19.388Z,99527.08
2018-07-22T01:58:56.631Z,99530.87
2018-07-22T02:01:35.789Z,99527.15
2018-07-22T02:04:14.805Z,99541.92
2018-07-22T02:06:53.574Z,99540.69
2018-07-22T02:09:32.152Z,99543.79
2018-07-22T02:12:10.660Z,99535.63
2018-07-22T02:14:49.446Z,99542.81
2018-07-22T02:17:27.555Z,99544.58
2018-07-22T02:20:05.419Z,99554.23
2018-07-22T02:22:44.018Z,99543.16
2018-07-22T02:25:22.097Z,99532.61
2018-07-22T02:28:00.871Z,99524.77
2018-07-22T02:30:39.194Z,99529.67
2018-07-22T02:33:17.196Z,99534.84
2018-07-22T02:35:55.910Z,99547.58
2018-07-22T02:38:33.293Z,99552.08
2018-07-22T02:41:11.774Z,99541.55
2018-07-22T02:43:50.008Z,99548.16
2018-07-22T02:46:28.656Z,99549.78
2018-07-22T02:49:07.707Z,99564.40
2018-07-22T02:51:53.639Z,99570.94
2018-07-22T02:57:19.887Z,99591.31
2018-07-22T02:59:59.290Z,99596.86
2018-07-22T03:02:37.602Z,99594.42
2018-07-22T03:05:20.693Z,99604.73
2018-07-22T03:07:59.203Z,99594.73
2018-07-22T03:10:38.514Z,99593.98
2018-07-22T03:13:19.841Z,99590.88
2018-07-22T03:15:58.267Z,99588.44
2018-07-22T03:18:38.250Z,99588.81
2018-07-22T03:21:17.030Z,99600.23
2018-07-22T03:23:55.334Z,99595.50
2018-07-22T03:26:35.703Z,99594.30
2018-07-22T03:29:16.018Z,99596.52
2018-07-22T03:31:54.451Z,99597.50
2018-07-22T03:34:37.001Z,99594.17
2018-07-22T03:37:32.064Z,99594.19
2018-07-22T03:40:14.212Z,99590.17
2018-07-22T03:42:53.285Z,99601.65
2018-07-22T03:45:31.698Z,99623.84
2018-07-22T03:48:15.856Z,99610.75
2018-07-22T03:50:54.409Z,99609.19
2018-07-22T03:53:37.600Z,99618.80
2018-07-22T03:56:16.020Z,99607.06
2018-07-22T03:58:54.094Z,99612.41
2018-07-22T04:01:32.875Z,99617.00
2018-07-22T04:04:10.564Z,99612.92
2018-07-22T04:06:49.599Z,99608.33
2018-07-22T04:09:28.326Z,99608.48
2018-07-22T04:12:06.724Z,99599.52
2018-07-22T04:14:44.803Z,99604.01
2018-07-22T04:17:23.294Z,99612.31
2018-07-22T04:20:00.677Z,99616.15
2018-07-22T04:22:39.681Z,99613.77
2018-07-22T04:25:17.484Z,99613.85
2018-07-22T04:27:53.440Z,99612.66
2018-07-22T04:30:31.767Z,99606.94
2018-07-22T04:33:09.764Z,99604.70
2018-07-22T04:35:48.604Z,99609.84
2018-07-22T04:38:27.196Z,99610.95
2018-07-22T04:41:05.605Z,99603.89
2018-07-22T04:43:42.914Z,99607.59
2018-07-22T04:46:23.063Z,99604.53
2018-07-22T04:49:01.269Z,99602.09
2018-07-22T04:51:38.600Z,99597.47
2018-07-22T04:54:17.403Z,99591.40
2018-07-22T04:56:55.685Z,99596.50
2018-07-22T04:59:33.668Z,99601.00
2018-07-22T05:02:11.559Z,99589.53
2018-07-22T05:04:50.886Z,99603.72
2018-07-22T05:07:28.628Z,99590.15
2018-07-22T05:10:06.388Z,99594.92
2018-07-22T05:12:44.844Z,99594.34
2018-07-22T05:15:24.716Z,99593.64
2018-07-22T05:18:03.438Z,99598.08
2018-07-22T05:20:40.806Z,99588.63
2018-07-22T05:23:27.085Z,99586.66
2018-07-22T05:26:04.762Z,99580.05
2018-07-22T05:28:42.165Z,99593.64
2018-07-22T05:31:20.555Z,99601.67
2018-07-22T05:33:59.276Z,99603.91
2018-07-22T05:36:38.316Z,99608.83
2018-07-22T05:39:17.032Z,99612.61
2018-07-22T05:41:55.461Z,99604.00
2018-07-22T05:44:33.830Z,99607.53
2018-07-22T05:47:12.591Z,99608.17
2018-07-22T05:49:50.316Z,99595.50
2018-07-22T05:52:28.341Z,99604.72
2018-07-22T05:55:07.037Z,99583.03
2018-07-22T05:57:45.337Z,99585.51
2018-07-22T06:00:24.271Z,99590.77
2018-07-22T06:03:02.909Z,99590.03
2018-07-22T06:05:44.261Z,99593.84
2018-07-22T06:08:23.544Z,99586.43
2018-07-22T06:11:02.088Z,99586.05
2018-07-22T06:13:41.036Z,99593.84
2018-07-22T06:16:19.548Z,99586.02
2018-07-22T06:18:57.786Z,99591.73
2018-07-22T06:21:35.920Z,99585.58
2018-07-22T06:24:14.024Z,99588.64
2018-07-22T06:26:53.056Z,99588.41
2018-07-22T06:29:30.710Z,99586.52
2018-07-22T06:32:09.152Z,99585.27
2018-07-22T06:34:47.755Z,99588.38
2018-07-22T06:37:26.273Z,99593.89
2018-07-22T06:40:04.640Z,99589.87
2018-07-22T06:42:43.195Z,99581.64
2018-07-22T06:45:21.988Z,99576.44
2018-07-22T06:48:00.153Z,99565.61
2018-07-22T06:50:39.114Z,99550.31
2018-07-22T06:53:16.885Z,99548.80
2018-07-22T06:55:56.237Z,99544.52
2018-07-22T06:58:35.282Z,99548.28
2018-07-22T07:01:13.759Z,99546.48
2018-07-22T07:03:52.029Z,99533.66
2018-07-22T07:06:30.262Z,99544.22
2018-07-22T07:09:09.725Z,99540.97
2018-07-22T07:11:48.318Z,99542.48
2018-07-22T07:14:26.633Z,99557.08
2018-07-22T07:17:05.035Z,99547.92
2018-07-22T07:19:42.933Z,99546.73
2018-07-22T07:22:20.391Z,99539.30
2018-07-22T07:24:58.729Z,99541.36
2018-07-22T07:27:37.131Z,99542.45
2018-07-22T07:30:15.202Z,99540.68
2018-07-22T07:32:53.919Z,99540.79
2018-07-22T07:35:32.953Z,99525.59
2018-07-22T07:38:12.043Z,99525.22
2018-07-22T07:40:50.455Z,99515.80
2018-07-22T07:43:29.492Z,99517.58
2018-07-22T07:46:07.528Z,99513.78
2018-07-22T07:48:44.998Z,99524.90
2018-07-22T07:51:23.251Z,99518.86
2018-07-22T07:54:01.682Z,99517.55
2018-07-22T07:56:40.154Z,99521.98
2018-07-22T07:59:18.461Z,99532.91
2018-07-22T08:01:56.565Z,99529.61
2018-07-22T08:04:36.083Z,99524.07
2018-07-22T08:07:15.119Z,99528.51
2018-07-22T08:09:53.518Z,99522.20
2018-07-22T08:12:32.648Z,99524.73
2018-07-22T08:15:11.511Z,99513.42
2018-07-22T08:17:49.642Z,99508.98
2018-07-22T08:20:28.131Z,99515.42
2018-07-22T08:23:06.261Z,99518.91
2018-07-22T08:25:44.521Z,99519.44
2018-07-22T08:28:28.413Z,99515.05
2018-07-22T08:31:06.488Z,99513.75
2018-07-22T08:33:45.837Z,99502.86
2018-07-22T08:36:24.253Z,99504.84
2018-07-22T08:39:02.321Z,99502.88
2018-07-22T08:41:39.922Z,99505.08
2018-07-22T08:44:19.118Z,99491.36
2018-07-22T08:46:57.211Z,99491.17
2018-07-22T08:49:35.054Z,99486.42
2018-07-22T08:52:12.847Z,99478.38
2018-07-22T08:54:51.863Z,99483.80
2018-07-22T08:57:29.918Z,99490.12
2018-07-22T09:00:08.252Z,99496.65
2018-07-22T09:02:46.719Z,99499.29
2018-07-22T09:05:25.184Z,99508.84
2018-07-22T09:08:01.859Z,99502.62
2018-07-22T09:10:37.652Z,99503.58
2018-07-22T09:13:15.113Z,99501.30
2018-07-22T09:15:51.087Z,99501.67
2018-07-22T09:18:27.327Z,99504.59
2018-07-22T09:21:03.211Z,99506.53
2018-07-22T09:23:39.368Z,99505.22
2018-07-22T09:26:15.396Z,99501.11
2018-07-22T09:28:51.528Z,99504.59
2018-07-22T09:31:27.246Z,99501.30
2018-07-22T09:34:03.171Z,99503.01
2018-07-22T09:36:39.520Z,99491.92
2018-07-22T09:39:15.775Z,99488.39
2018-07-22T09:41:51.542Z,99486.22
2018-07-22T09:44:28.141Z,99491.56
2018-07-22T09:47:03.981Z,99494.90
2018-07-22T09:49:40.012Z,99496.61
2018-07-22T09:52:15.942Z,99495.53
2018-07-22T09:54:51.677Z,99506.73
2018-07-22T09:57:27.687Z,99506.36
2018-07-22T10:00:03.520Z,99500.44
2018-07-22T10:02:39.411Z,99495.71
2018-07-22T10:05:16.112Z,99500.48
2018-07-22T10:07:52.034Z,99502.48
2018-07-22T10:10:27.553Z,99497.52
2018-07-22T10:13:03.350Z,99501.88
2018-07-22T10:15:39.174Z,99496.00
2018-07-22T10:18:14.832Z,99501.61
2018-07-22T10:20:50.632Z,99493.73
2018-07-22T10:23:26.659Z,99486.68
2018-07-22T10:26:04.983Z,99494.27
2018-07-22T10:28:43.421Z,99493.94
2018-07-22T10:31:21.790Z,99494.17
2018-07-22T10:34:00.388Z,99489.73
2018-07-22T10:36:38.893Z,99498.29
2018-07-22T10:39:18.080Z,99495.97
2018-07-22T10:41:57.039Z,99487.23
2018-07-22T10:44:35.355Z,99514.02
2018-07-22T10:47:14.429Z,99511.49
2018-07-22T10:49:53.760Z,99511.26
2018-07-22T10:52:32.822Z,99508.09
2018-07-22T10:55:10.249Z,99506.05
2018-07-22T10:57:48.323Z,99509.87
2018-07-22T11:00:26.996Z,99516.89
2018-07-22T11:03:05.467Z,99518.05
2018-07-22T11:05:43.517Z,99518.72
2018-07-22T11:08:22.318Z,99518.58
2018-07-22T11:11:01.288Z,99527.31
2018-07-22T11:13:39.449Z,99526.98
2018-07-22T11:16:18.079Z,99532.61
2018-07-22T11:18:55.619Z,99531.23
2018-07-22T11:21:32.639Z,99538.53
2018-07-22T11:24:11.121Z,99542.48
2018-07-22T11:26:49.161Z,99543.65
2018-07-22T11:29:28.167Z,99547.98
2018-07-22T11:32:05.582Z,99546.47
2018-07-22T11:34:43.556Z,99541.33
2018-07-22T11:37:22.156Z,99546.09
2018-07-22T11:39:59.960Z,99546.66
2018-07-22T11:42:38.254Z,99548.23
2018-07-22T11:45:16.346Z,99542.13
2018-07-22T11:47:54.740Z,99549.33
2018-07-22T11:50:31.975Z,99544.60
2018-07-22T11:53:09.918Z,99549.63
2018-07-22T11:55:48.001Z,99549.63
2018-07-22T11:58:26.120Z,99551.20
2018-07-22T12:01:04.613Z,99556.47
2018-07-22T12:03:42.240Z,99555.94
2018-07-22T12:06:21.027Z,99557.97
2018-07-22T12:08:59.038Z,99565.47
2018-07-22T12:11:35.712Z,99570.27
2018-07-22T12:14:13.914Z,99567.77
2018-07-22T12:16:53.026Z,99568.06
2018-07-22T12:19:30.199Z,99583.80
2018-07-22T12:22:08.257Z,99580.61
2018-07-22T12:24:46.379Z,99587.33
2018-07-22T12:27:24.823Z,99591.74
2018-07-22T12:30:02.569Z,99595.31
2018-07-22T12:32:40.962Z,99597.06
2018-07-22T12:35:19.365Z,99602.03
2018-07-22T12:37:57.757Z,99609.47
2018-07-22T12:40:35.403Z,99615.20
2018-07-22T12:43:17.125Z,99616.46
2018-07-22T12:45:59.944Z,99626.30
2018-07-22T12:48:38.662Z,99632.12
2018-07-22T12:51:17.356Z,99631.84
2018-07-22T12:53:55.188Z,99640.32
2018-07-22T12:56:33.197Z,99640.55
2018-07-22T12:59:11.285Z,99635.64
2018-07-22T13:01:50.495Z,99656.35
2018-07-22T13:04:27.921Z,99662.38
2018-07-22T13:07:05.689Z,99664.89
2018-07-22T13:09:43.825Z,99659.73
2018-07-22T13:12:22.568Z,99662.52
2018-07-22T13:15:00.247Z,99666.88
2018-07-22T13:17:38.718Z,99666.51
2018-07-22T13:20:16.592Z,99668.63
2018-07-22T13:22:53.944Z,99671.98
2018-07-22T13:25:31.643Z,99681.44
2018-07-22T13:28:10.086Z,99682.70
2018-07-22T13:30:47.919Z,99690.40
2018-07-22T13:33:27.460Z,99686.45
2018-07-22T13:36:05.274Z,99697.22
2018-07-22T13:38:45.993Z,99700.56
2018-07-22T13:41:24.373Z,99704.02
2018-07-22T13:44:02.582Z,99711.29
2018-07-22T13:46:41.929Z,99717.29
2018-07-22T13:49:19.770Z,99719.90
2018-07-22T13:51:58.298Z,99728.08
2018-07-22T13:58:14.759Z,99728.21
2018-07-22T14:01:23.135Z,99726.63
2018-07-22T14:06:57.094Z,99724.14
2018-07-22T14:09:45.984Z,99739.46
2018-07-22T14:12:52.067Z,99746.62
2018-07-22T14:15:54.453Z,99747.84
2018-07-22T14:18:50.390Z,99749.98
2018-07-22T14:21:49.440Z,99761.72
2018-07-22T14:24:45.045Z,99758.97
2018-07-22T14:27:40.585Z,99768.73
2018-07-22T14:30:27.018Z,99769.31
2018-07-22T14:33:25.204Z,99775.98
2018-07-22T14:36:23.014Z,99782.79
2018-07-22T14:39:27.771Z,99790.80
2018-07-22T14:42:07.188Z,99798.89
2018-07-22T14:44:45.384Z,99801.67
2018-07-22T14:47:22.372Z,99801.05
2018-07-22T14:50:00.987Z,99809.80
2018-07-22T14:52:38.211Z,99806.20
2018-07-22T14:55:15.907Z,99806.72
2018-07-22T14:57:58.702Z,99809.68
2018-07-22T15:07:19.767Z,99816.83
2018-07-22T15:09:59.369Z,99821.94
2018-07-22T15:12:43.291Z,99820.78
2018-07-22T15:15:24.263Z,99825.77
2018-07-22T15:18:01.197Z,99829.09
2018-07-22T15:20:38.331Z,99834.37
2018-07-22T15:23:15.132Z,99836.53
2018-07-22T15:25:53.219Z,99838.92
2018-07-22T15:28:40.388Z,99833.16
2018-07-22T15:31:18.399Z,99840.95
2018-07-22T15:33:58.783Z,99849.72
2018-07-22T15:36:37.639Z,99843.74
2018-07-22T15:39:15.592Z,99856.28
2018-07-22T15:41:52.810Z,99856.83
2018-07-22T15:44:30.610Z,99863.74
2018-07-22T15:47:07.953Z,99873.16
2018-07-22T15:49:59.492Z,99873.73
2018-07-22T15:52:41.642Z,99877.28
2018-07-22T15:55:23.401Z,99880.13
2018-07-22T15:58:08.696Z,99882.57
2018-07-22T16:01:07.994Z,99892.58
2018-07-22T16:03:50.346Z,99891.81
2018-07-22T16:06:36.601Z,99890.18
2018-07-22T16:09:23.412Z,99895.75
2018-07-22T16:12:03.279Z,99902.66
2018-07-22T16:29:57.266Z,99898.18
2018-07-22T16:36:10.591Z,99904.56
2018-07-22T16:42:39.681Z,99894.77
2018-07-22T16:56:29.324Z,99939.54
2018-07-22T16:59:21.441Z,99924.73
2018-07-22T17:02:09.881Z,99924.42
2018-07-22T17:05:01.812Z,99924.30
2018-07-22T17:07:54.056Z,99913.97
2018-07-22T17:14:08.463Z,99920.84
2018-07-22T17:19:38.902Z,99915.20
2018-07-22T17:22:34.126Z,99911.73
2018-07-22T17:25:30.276Z,99908.05
2018-07-22T17:31:21.092Z,99912.28
2018-07-22T18:20:41.110Z,99875.19
2018-07-22T19:05:53.328Z,99833.84
2018-07-22T19:08:46.909Z,99847.81
2018-07-22T19:11:27.134Z,99842.16
2018-07-22T19:14:14.287Z,99844.42
2018-07-22T19:17:00.500Z,99832.22
2018-07-22T19:22:44.044Z,99823.66
2018-07-22T19:25:28.450Z,99813.02
2018-07-22T19:28:08.330Z,99799.05
2018-07-22T19:30:47.092Z,99803.79
2018-07-22T19:33:41.995Z,99822.05
2018-07-22T19:39:30.134Z,99822.55
2018-07-22T19:42:16.871Z,99863.04
2018-07-22T19:44:58.388Z,99882.45
2018-07-22T19:47:58.776Z,99867.91
2018-07-22T19:50:55.072Z,99881.80
2018-07-22T19:56:39.002Z,99860.65
2018-07-22T20:00:40.997Z,99863.02
2018-07-22T20:03:23.044Z,99851.67
2018-07-22T20:06:27.758Z,99877.26
2018-07-22T20:09:12.471Z,99878.59
2018-07-22T20:11:55.869Z,99860.16
2018-07-22T20:14:36.427Z,99844.12
2018-07-22T20:20:15.673Z,99865.74
2018-07-22T20:23:00.662Z,99870.78
2018-07-22T20:25:40.485Z,99872.94
2018-07-22T20:28:17.623Z,99853.64
2018-07-22T20:30:56.013Z,99862.30
2018-07-22T20:33:36.591Z,99857.63
2018-07-22T20:36:30.872Z,99860.09
2018-07-22T20:39:16.166Z,99853.03
2018-07-22T20:42:00.350Z,99867.63
2018-07-22T20:44:42.003Z,99882.02
2018-07-22T20:47:24.542Z,99874.34
2018-07-22T20:50:14.793Z,99847.20
2018-07-22T20:53:09.995Z,99829.34
2018-07-22T20:55:49.370Z,99824.42
2018-07-22T20:58:33.809Z,99825.97
2018-07-22T21:01:12.967Z,99841.77
2018-07-22T21:03:50.569Z,99832.41
2018-07-22T21:16:51.016Z,99799.62
2018-07-22T21:23:23.718Z,99813.85
2018-07-22T21:26:38.058Z,99802.87
2018-07-22T21:32:20.944Z,99805.70
2018-07-22T21:34:59.855Z,99813.31
2018-07-22T21:37:44.091Z,99814.30
2018-07-22T21:40:23.232Z,99812.66
2018-07-22T21:43:03.787Z,99813.83
2018-07-22T21:45:51.765Z,99817.15
2018-07-22T21:48:43.309Z,99824.67
2018-07-22T21:51:27.478Z,99823.20
2018-07-22T21:54:29.842Z,99829.81
2018-07-22T21:57:47.849Z,99839.97
2018-07-22T22:00:44.914Z,99845.78
2018-07-22T22:03:42.571Z,99840.41
2018-07-22T22:15:47.485Z,99838.48
2018-07-22T22:18:47.577Z,99843.41
2018-07-22T22:22:00.086Z,99852.56
2018-07-22T22:33:37.371Z,99850.75
2018-07-22T22:36:26.658Z,99862.95
2018-07-22T22:39:10.803Z,99841.80
2018-07-22T22:42:05.869Z,99843.07
2018-07-22T22:47:40.598Z,99845.58
2018-07-22T22:50:31.013Z,99840.34
2018-07-22T22:56:26.494Z,99830.98
2018-07-22T23:02:28.532Z,99825.21
2018-07-22T23:07:58.017Z,99830.05
2018-07-22T23:10:47.474Z,99828.61
2018-07-22T23:25:13.194Z,99824.33
2018-07-22T23:28:13.857Z,99829.77
2018-07-22T23:31:28.134Z,99823.11
2018-07-22T23:34:44.093Z,99834.83
2018-07-22T23:37:40.289Z,99834.29
2018-07-22T23:43:44.364Z,99837.56
2018-07-22T23:46:30.184Z,99837.70
2018-07-22T23:52:27.466Z,99832.24
2018-07-22T23:55:30.542Z,99825.48
2018-07-22T23:58:37.435Z,99825.06
